Time;durP1;ratioP1;P1;durP2;ratioP2;P2;SDS_P1;SDS_P2;PMS_P1;PMS_P2;Temp;Humidity;BMP_temperature;BMP_pressure;BME280_temperature;BME280_humidity;BME280_pressure;Samples;Min_cycle;Max_cycle;Signal;HPM_P1;HPM_P2
2022/03/07 00:01:40;;;;;;;9.50;4.82;;;;;;;0.76;58.94;101593.22;5011502;28;20117;-71
2022/03/07 00:04:05;;;;;;;6.55;3.95;;;;;;;0.76;59.06;101597.50;5014742;28;20038;-71
2022/03/07 00:06:31;;;;;;;7.10;3.78;;;;;;;0.75;59.63;101600.94;4999164;28;20069;-71
2022/03/07 00:08:56;;;;;;;7.95;4.50;;;;;;;0.72;59.63;101598.19;4997842;28;20075;-71
2022/03/07 00:11:21;;;;;;;6.75;3.85;;;;;;;0.76;59.22;101606.22;5000114;28;20075;-71
2022/03/07 00:13:47;;;;;;;6.03;3.65;;;;;;;0.75;59.48;101604.41;4997752;28;20042;-71
2022/03/07 00:16:13;;;;;;;8.23;4.07;;;;;;;0.69;59.85;101614.50;4999118;28;20112;-71
2022/03/07 00:18:40;;;;;;;11.57;4.07;;;;;;;0.72;59.56;101603.38;5006734;28;20029;-71
2022/03/07 00:21:07;;;;;;;7.82;3.58;;;;;;;0.71;59.63;101610.28;5016750;28;20049;-71
2022/03/07 00:23:32;;;;;;;6.60;3.72;;;;;;;0.72;59.96;101609.47;4997571;28;20092;-72
2022/03/07 00:25:58;;;;;;;7.53;3.97;;;;;;;0.73;59.68;101606.03;5010767;28;20043;-71
2022/03/07 00:28:23;;;;;;;7.57;3.85;;;;;;;0.73;59.40;101610.34;5010778;28;20031;-71
2022/03/07 00:30:48;;;;;;;6.07;3.53;;;;;;;0.71;59.62;101606.78;4999288;28;20062;-71
2022/03/07 00:33:18;;;;;;;7.57;3.72;;;;;;;0.71;60.36;101596.38;4999851;28;20377;-71
2022/03/07 00:35:43;;;;;;;7.72;3.53;;;;;;;0.80;59.89;101602.94;5003231;28;20030;-71
2022/03/07 00:38:09;;;;;;;6.13;3.80;;;;;;;0.79;60.19;101601.16;4999046;28;20507;-72
2022/03/07 00:40:35;;;;;;;6.75;3.15;;;;;;;0.79;60.10;101598.56;4997187;28;20034;-71
2022/03/07 00:43:00;;;;;;;7.43;4.07;;;;;;;0.73;59.95;101602.56;5014600;28;20087;-71
2022/03/07 00:45:25;;;;;;;6.30;3.58;;;;;;;0.78;60.16;101599.38;4997795;28;20034;-71
2022/03/07 00:47:51;;;;;;;8.30;4.53;;;;;;;0.80;60.55;101602.06;4998400;28;20030;-71
2022/03/07 00:50:16;;;;;;;6.07;3.80;;;;;;;0.79;60.33;101601.16;4994933;28;20540;-71
2022/03/07 00:52:43;;;;;;;6.07;3.38;;;;;;;0.78;60.74;101599.38;4997705;28;20458;-72
2022/03/07 00:55:09;;;;;;;5.95;3.33;;;;;;;0.74;60.31;101597.44;5000790;28;20038;-72
2022/03/07 00:57:34;;;;;;;8.02;3.90;;;;;;;0.77;60.60;101596.72;4997150;28;20116;-71
2022/03/07 01:00:00;;;;;;;5.78;3.50;;;;;;;0.80;60.64;101594.25;5014039;28;20492;-71
2022/03/07 01:02:25;;;;;;;5.55;3.45;;;;;;;0.83;60.50;101597.88;5011559;28;20551;-71
2022/03/07 01:04:51;;;;;;;6.40;3.40;;;;;;;0.83;60.49;101590.09;4999634;28;20125;-71
2022/03/07 01:07:17;;;;;;;6.55;3.53;;;;;;;0.82;60.39;101595.22;4992701;28;20031;-71
2022/03/07 01:09:42;;;;;;;8.43;3.38;;;;;;;0.78;60.43;101586.38;4996873;28;20432;-71
2022/03/07 01:12:08;;;;;;;8.60;3.97;;;;;;;0.79;61.04;101580.38;4995038;28;20042;-71
2022/03/07 01:14:34;;;;;;;7.03;3.50;;;;;;;0.86;60.82;101582.47;5003091;28;20030;-71
2022/03/07 01:16:59;;;;;;;6.93;3.30;;;;;;;0.92;60.98;101588.78;5000525;28;20045;-71
2022/03/07 01:19:24;;;;;;;7.20;3.80;;;;;;;0.95;60.95;101579.44;5001698;28;20134;-71
2022/03/07 01:21:51;;;;;;;5.70;3.15;;;;;;;0.97;61.12;101587.28;4997331;28;20034;-71
2022/03/07 01:24:17;;;;;;;5.57;3.35;;;;;;;0.98;60.86;101578.69;5002196;28;20033;-71
2022/03/07 01:26:43;;;;;;;6.38;3.55;;;;;;;0.97;60.55;101582.09;5018672;28;20065;-71
2022/03/07 01:29:08;;;;;;;5.97;3.28;;;;;;;0.98;61.16;101583.91;5001785;28;20069;-71
2022/03/07 01:31:34;;;;;;;6.47;3.38;;;;;;;0.98;60.51;101576.09;5006045;28;20034;-71
2022/03/07 01:34:00;;;;;;;7.00;3.10;;;;;;;1.03;60.72;101579.81;5014175;28;20026;-71
2022/03/07 01:36:25;;;;;;;6.50;3.55;;;;;;;1.00;60.84;101579.66;5000138;28;20038;-71
2022/03/07 01:38:51;;;;;;;6.80;3.63;;;;;;;1.01;61.24;101586.63;5000706;28;20087;-71
2022/03/07 01:41:17;;;;;;;7.70;3.10;;;;;;;1.02;61.22;101583.22;4999638;28;20042;-71
2022/03/07 01:43:42;;;;;;;6.13;3.10;;;;;;;1.01;61.06;101589.25;5001962;28;20034;-71
2022/03/07 01:46:09;;;;;;;5.82;3.17;;;;;;;0.99;60.86;101585.66;5014783;28;20049;-71
2022/03/07 01:48:36;;;;;;;7.20;3.60;;;;;;;0.98;60.68;101581.28;5017313;28;20052;-71
2022/03/07 01:51:02;;;;;;;5.35;3.20;;;;;;;1.00;61.13;101577.06;5015956;28;20046;-71
2022/03/07 01:53:28;;;;;;;5.53;2.90;;;;;;;1.05;61.55;101578.19;5015175;28;20042;-71
2022/03/07 01:55:55;;;;;;;6.75;3.13;;;;;;;1.16;61.37;101571.78;5017463;28;20033;-71
2022/03/07 01:58:21;;;;;;;6.28;3.15;;;;;;;1.24;61.24;101573.06;4995484;28;20059;-71
2022/03/07 02:00:47;;;;;;;8.25;3.33;;;;;;;1.29;61.00;101571.56;5002860;28;20034;-71
2022/03/07 02:03:13;;;;;;;7.30;3.47;;;;;;;1.34;60.88;101568.28;5008792;28;20544;-71
2022/03/07 02:05:46;;;;;;;5.30;3.00;;;;;;;1.40;61.06;101566.88;5014542;28;20030;-71
2022/03/07 02:08:17;;;;;;;5.78;3.35;;;;;;;1.38;61.24;101557.22;5009674;28;20427;-71
2022/03/07 02:10:49;;;;;;;7.93;4.00;;;;;;;1.34;61.90;101565.69;5029531;28;20038;-72
2022/03/07 02:13:17;;;;;;;6.72;3.40;;;;;;;1.31;61.86;101563.84;5017857;28;20040;-71
2022/03/07 02:15:57;;;;;;;;;;;;;;;1.09;62.25;101561.91;5015163;28;20037;-72
2022/03/07 02:18:28;;;;;;;6.60;3.70;;;;;;;0.97;62.91;101563.91;5003448;28;20027;-71
2022/03/07 02:21:05;;;;;;;7.38;4.20;;;;;;;0.98;62.87;101555.31;5009093;28;20030;-71
2022/03/07 02:23:30;;;;;;;7.90;4.55;;;;;;;0.94;63.18;101545.56;5004449;28;20708;-71
2022/03/07 02:25:55;;;;;;;6.10;3.85;;;;;;;0.94;62.37;101553.34;4998749;28;20038;-71
2022/03/07 02:28:21;;;;;;;6.40;4.22;;;;;;;0.95;62.70;101544.75;5016890;28;20038;-71
2022/03/07 02:30:51;;;;;;;8.68;3.90;;;;;;;0.98;62.20;101550.97;4997646;28;20031;-71
2022/03/07 02:33:17;;;;;;;6.85;4.57;;;;;;;0.94;62.64;101548.16;4999115;28;20030;-71
2022/03/07 02:35:43;;;;;;;7.43;4.25;;;;;;;1.01;63.18;101542.44;5016097;28;20120;-71
2022/03/07 02:38:16;;;;;;;6.75;4.03;;;;;;;1.10;63.15;101542.88;5013971;28;20030;-71
2022/03/07 02:40:46;;;;;;;9.50;4.22;;;;;;;1.11;63.00;101547.28;4999067;28;20034;-71
2022/03/07 02:43:13;;;;;;;8.48;4.22;;;;;;;1.06;62.80;101541.84;5002168;28;20042;-71
2022/03/07 02:45:40;;;;;;;7.85;3.92;;;;;;;0.96;63.30;101557.81;5002619;28;20407;-71
2022/03/07 02:48:06;;;;;;;6.60;4.20;;;;;;;0.93;64.30;101561.97;5015812;28;20033;-71
2022/03/07 02:50:31;;;;;;;7.75;3.85;;;;;;;0.93;63.41;101548.97;4997470;28;20460;-71
2022/03/07 02:52:57;;;;;;;7.07;4.35;;;;;;;0.90;64.40;101557.53;5013824;28;20117;-71
2022/03/07 02:55:23;;;;;;;5.63;3.88;;;;;;;0.93;63.65;101548.97;4996974;28;20058;-72
2022/03/07 02:57:49;;;;;;;6.20;3.85;;;;;;;0.94;63.90;101546.44;5001102;28;20042;-72
2022/03/07 03:00:14;;;;;;;6.57;4.05;;;;;;;0.90;64.47;101548.84;4999966;28;20064;-72
2022/03/07 03:02:40;;;;;;;7.07;4.18;;;;;;;0.84;64.26;101547.72;4998831;28;20480;-72
2022/03/07 03:05:06;;;;;;;7.72;4.32;;;;;;;0.81;63.84;101557.03;5001279;28;20037;-72
2022/03/07 03:07:31;;;;;;;6.88;3.88;;;;;;;0.81;64.11;101559.66;4998557;28;20042;-72
2022/03/07 03:09:57;;;;;;;5.97;3.45;;;;;;;0.82;64.71;101559.75;5000403;28;20038;-72
2022/03/07 03:12:24;;;;;;;6.93;3.90;;;;;;;0.87;64.19;101550.47;5005541;28;20038;-72
2022/03/07 03:14:50;;;;;;;7.80;3.45;;;;;;;0.91;63.88;101548.00;5016342;28;20038;-72
2022/03/07 03:17:16;;;;;;;6.45;3.40;;;;;;;0.93;64.33;101541.19;4998166;28;20038;-72
2022/03/07 03:19:41;;;;;;;7.35;3.70;;;;;;;0.92;64.05;101542.91;5001925;28;20036;-72
2022/03/07 03:22:06;;;;;;;6.50;3.70;;;;;;;0.92;64.38;101540.31;4997836;28;20056;-72
2022/03/07 03:24:32;;;;;;;7.90;3.93;;;;;;;0.87;64.89;101533.97;4998674;28;20475;-72
2022/03/07 03:26:57;;;;;;;7.03;3.63;;;;;;;0.88;64.19;101534.03;5001185;28;20495;-72
2022/03/07 03:29:23;;;;;;;8.13;4.43;;;;;;;0.88;64.80;101536.63;4998497;28;20038;-72
2022/03/07 03:31:48;;;;;;;5.93;3.50;;;;;;;0.93;64.97;101533.38;4999678;28;20064;-72
2022/03/07 03:34:13;;;;;;;9.77;4.50;;;;;;;0.92;64.86;101527.31;4999977;28;20397;-72
2022/03/07 03:36:39;;;;;;;9.00;4.35;;;;;;;0.97;64.16;101531.03;4997052;28;20037;-72
2022/03/07 03:39:04;;;;;;;7.72;4.38;;;;;;;1.00;63.86;101535.47;5000863;28;20453;-72
2022/03/07 03:41:29;;;;;;;6.38;3.30;;;;;;;1.00;64.13;101535.47;4998219;28;20038;-72
2022/03/07 03:43:55;;;;;;;6.32;3.60;;;;;;;0.98;64.56;101537.09;4999387;28;20045;-72
2022/03/07 03:46:20;;;;;;;7.43;3.70;;;;;;;0.95;64.62;101539.56;4999960;28;20045;-72
2022/03/07 03:48:46;;;;;;;7.47;3.80;;;;;;;0.94;64.67;101543.84;4997721;28;20397;-72
2022/03/07 03:51:11;;;;;;;9.63;3.72;;;;;;;0.82;64.52;101544.16;4998078;28;20038;-72
2022/03/07 03:53:36;;;;;;;5.32;3.33;;;;;;;0.79;65.03;101549.19;4998565;28;20392;-72
2022/03/07 03:56:02;;;;;;;8.13;4.20;;;;;;;0.77;65.39;101548.22;4999082;28;20041;-72
2022/03/07 03:58:27;;;;;;;6.95;3.75;;;;;;;0.73;65.18;101548.88;4997378;28;20038;-72
2022/03/07 04:00:53;;;;;;;7.68;3.67;;;;;;;0.73;65.45;101554.06;5000685;28;20046;-72
2022/03/07 04:03:18;;;;;;;6.50;3.90;;;;;;;0.65;65.46;101555.38;5000042;28;20096;-72
2022/03/07 04:05:44;;;;;;;6.65;4.07;;;;;;;0.65;65.43;101552.78;4998628;28;20045;-72
2022/03/07 04:08:09;;;;;;;6.70;3.60;;;;;;;0.69;65.64;101562.53;4998435;28;20039;-72
2022/03/07 04:10:34;;;;;;;6.20;3.70;;;;;;;0.67;65.66;101552.88;5000290;28;20045;-72
2022/03/07 04:13:00;;;;;;;6.47;3.83;;;;;;;0.61;66.40;101562.16;4996948;28;20034;-72
2022/03/07 04:15:26;;;;;;;10.13;4.10;;;;;;;0.59;66.30;101557.69;4998048;28;20045;-72
2022/03/07 04:17:52;;;;;;;7.32;4.10;;;;;;;0.56;65.85;101561.03;5016634;28;20039;-72
2022/03/07 04:20:18;;;;;;;6.80;3.40;;;;;;;0.53;66.50;101566.06;4997913;28;20115;-72
2022/03/07 04:22:43;;;;;;;6.38;3.90;;;;;;;0.54;65.68;101564.38;4999806;28;20135;-72
2022/03/07 04:25:09;;;;;;;6.75;3.70;;;;;;;0.51;66.09;101561.63;5006989;28;20037;-72
2022/03/07 04:27:35;;;;;;;5.60;3.43;;;;;;;0.47;65.98;101564.84;5017433;28;20095;-71
2022/03/07 04:30:03;;;;;;;6.70;3.72;;;;;;;0.39;66.10;101565.38;4999413;28;20044;-72
2022/03/07 04:32:29;;;;;;;6.68;3.50;;;;;;;0.31;67.01;101558.88;5000285;28;20038;-72
2022/03/07 04:34:54;;;;;;;6.40;3.43;;;;;;;0.29;66.59;101567.38;5014839;28;20041;-72
2022/03/07 04:37:19;;;;;;;6.10;3.50;;;;;;;0.22;66.79;101561.00;4998265;28;20074;-72
2022/03/07 04:39:45;;;;;;;6.13;3.97;;;;;;;0.16;66.81;101569.38;4998059;28;20034;-71
2022/03/07 04:42:10;;;;;;;4.83;3.13;;;;;;;0.07;66.71;101563.69;4999463;28;20042;-71
2022/03/07 04:44:35;;;;;;;8.83;4.07;;;;;;;-0.04;67.46;101570.91;4996358;28;20034;-72
2022/03/07 04:47:01;;;;;;;6.83;4.20;;;;;;;-0.11;67.49;101571.38;5000007;28;20551;-71
2022/03/07 04:49:26;;;;;;;7.30;3.80;;;;;;;-0.17;67.56;101580.53;5013845;28;20034;-72
2022/03/07 04:51:51;;;;;;;8.10;3.73;;;;;;;-0.28;68.71;101582.56;5029980;28;20389;-71
2022/03/07 04:54:18;;;;;;;8.50;4.47;;;;;;;-0.33;68.98;101576.22;5062384;28;20028;-72
2022/03/07 04:56:46;;;;;;;9.93;4.20;;;;;;;-0.34;69.49;101584.81;5012255;28;20066;-72
2022/03/07 04:59:13;;;;;;;9.23;4.17;;;;;;;-0.32;69.08;101583.19;5004376;28;20038;-71
2022/03/07 05:01:38;;;;;;;8.17;4.57;;;;;;;-0.29;69.63;101593.72;5002679;28;20038;-71
2022/03/07 05:04:04;;;;;;;9.83;5.00;;;;;;;-0.29;69.82;101594.66;5006627;28;20041;-71
2022/03/07 05:06:29;;;;;;;7.20;3.87;;;;;;;-0.30;69.35;101586.78;5040158;28;20042;-71
2022/03/07 05:08:55;;;;;;;8.23;4.73;;;;;;;-0.35;70.07;101588.22;5001372;28;20077;-71
2022/03/07 05:11:20;;;;;;;6.83;4.03;;;;;;;-0.40;70.40;101587.94;5001058;28;20046;-71
2022/03/07 05:13:45;;;;;;;8.53;4.10;;;;;;;-0.42;70.59;101592.16;5030657;28;20034;-71
2022/03/07 05:16:11;;;;;;;8.80;4.67;;;;;;;-0.46;70.87;101595.41;5013731;28;20033;-71
2022/03/07 05:18:37;;;;;;;13.63;4.43;;;;;;;-0.48;70.48;101587.53;5000832;28;20079;-71
2022/03/07 05:21:02;;;;;;;6.57;4.13;;;;;;;-0.46;70.62;101592.81;5001139;28;20095;-71
2022/03/07 05:23:28;;;;;;;10.30;4.50;;;;;;;-0.55;70.82;101590.63;5002267;28;20037;-71
2022/03/07 05:25:53;;;;;;;8.57;4.90;;;;;;;-0.63;71.85;101590.97;4999848;28;20038;-72
2022/03/07 05:28:18;;;;;;;9.77;4.83;;;;;;;-0.66;70.91;101589.09;5011216;28;20038;-71
2022/03/07 05:30:44;;;;;;;6.20;4.43;;;;;;;-0.78;71.79;101593.63;5023939;28;20116;-72
2022/03/07 05:33:09;;;;;;;11.13;5.47;;;;;;;-0.89;71.79;101595.59;5035249;28;20053;-72
2022/03/07 05:35:34;;;;;;;9.03;4.87;;;;;;;-0.95;71.81;101596.13;5009705;28;20121;-72
2022/03/07 05:38:00;;;;;;;9.63;4.83;;;;;;;-1.01;71.66;101598.38;5009533;28;20037;-72
2022/03/07 05:40:26;;;;;;;7.67;4.63;;;;;;;-1.07;72.53;101598.03;5013483;28;20034;-72
2022/03/07 05:42:51;;;;;;;8.03;4.97;;;;;;;-1.14;72.99;101603.66;5020676;28;20067;-72
2022/03/07 05:45:17;;;;;;;10.43;5.43;;;;;;;-1.22;72.70;101603.19;5043684;28;20122;-72
2022/03/07 05:47:42;;;;;;;8.70;5.30;;;;;;;-1.26;73.32;101605.50;5023705;28;20040;-72
2022/03/07 05:50:09;;;;;;;9.37;5.23;;;;;;;-1.33;73.01;101605.16;5008105;28;20050;-73
2022/03/07 05:52:35;;;;;;;8.33;5.00;;;;;;;-1.36;73.48;101607.56;5008869;28;20030;-72
2022/03/07 05:55:02;;;;;;;8.33;5.00;;;;;;;-1.39;73.67;101615.16;5007999;28;20038;-72
2022/03/07 05:57:27;;;;;;;9.40;4.63;;;;;;;-1.42;74.10;101608.91;5010895;28;20038;-72
2022/03/07 05:59:52;;;;;;;9.00;4.87;;;;;;;-1.42;73.57;101614.06;5044633;28;20038;-72
2022/03/07 06:02:17;;;;;;;9.57;5.17;;;;;;;-1.44;74.54;101619.19;5017799;28;20043;-72
2022/03/07 06:04:44;;;;;;;8.20;4.33;;;;;;;-1.43;74.26;101617.47;5032690;28;20061;-71
2022/03/07 06:07:09;;;;;;;10.07;5.17;;;;;;;-1.41;73.80;101616.78;5009313;28;20566;-72
2022/03/07 06:09:35;;;;;;;8.57;5.70;;;;;;;-1.39;73.61;101624.59;4998300;28;20041;-71
2022/03/07 06:12:00;;;;;;;7.47;4.83;;;;;;;-1.37;73.42;101623.91;5001348;28;20406;-71
2022/03/07 06:14:25;;;;;;;8.03;5.47;;;;;;;-1.38;73.63;101624.72;5000331;28;20384;-72
2022/03/07 06:16:51;;;;;;;10.67;5.57;;;;;;;-1.35;73.79;101631.78;5000153;28;20117;-72
2022/03/07 06:19:16;;;;;;;11.63;6.30;;;;;;;-1.35;73.67;101629.19;5001927;28;20045;-72
2022/03/07 06:21:42;;;;;;;6.93;4.87;;;;;;;-1.33;73.88;101631.06;4998756;28;20042;-72
2022/03/07 06:24:07;;;;;;;10.57;5.50;;;;;;;-1.29;73.07;101626.94;5001246;28;20034;-71
2022/03/07 06:26:33;;;;;;;8.47;5.03;;;;;;;-1.26;72.79;101631.41;5000432;28;20038;-72
2022/03/07 06:29:00;;;;;;;7.73;5.07;;;;;;;-1.25;73.29;101634.09;4998440;28;20043;-71
2022/03/07 06:31:26;;;;;;;7.60;5.00;;;;;;;-1.21;73.55;101632.56;5001693;28;20120;-72
2022/03/07 06:33:51;;;;;;;8.83;6.00;;;;;;;-1.17;73.58;101642.34;4997940;28;20129;-72
2022/03/07 06:36:16;;;;;;;8.80;5.23;;;;;;;-1.16;73.03;101638.94;5000096;28;20045;-72
2022/03/07 06:38:42;;;;;;;7.80;4.73;;;;;;;-1.13;73.94;101640.03;5008993;28;20038;-72
2022/03/07 06:41:07;;;;;;;7.97;5.30;;;;;;;-1.08;73.10;101639.38;5007527;28;20042;-72
2022/03/07 06:43:33;;;;;;;7.97;5.37;;;;;;;-1.06;72.98;101637.78;5009149;28;20037;-72
2022/03/07 06:45:59;;;;;;;8.23;4.87;;;;;;;-1.02;72.96;101648.41;5027250;28;20088;-72
2022/03/07 06:48:25;;;;;;;10.23;5.53;;;;;;;-0.98;72.82;101647.78;5017037;28;20037;-72
2022/03/07 06:50:50;;;;;;;14.57;8.43;;;;;;;-0.94;73.62;101651.47;5003389;28;20033;-72
2022/03/07 06:53:16;;;;;;;16.73;8.47;;;;;;;-0.87;73.77;101650.97;5000504;28;20070;-72
2022/03/07 06:55:41;;;;;;;10.20;5.70;;;;;;;-0.79;73.44;101656.63;5001207;28;20045;-72
2022/03/07 06:58:06;;;;;;;10.33;6.10;;;;;;;-0.73;73.09;101646.63;4999754;28;20043;-72
2022/03/07 07:00:32;;;;;;;10.37;5.53;;;;;;;-0.66;72.47;101643.53;4999524;28;20030;-72
2022/03/07 07:02:57;;;;;;;12.50;6.10;;;;;;;-0.60;72.25;101645.59;4999701;28;20411;-72
2022/03/07 07:05:23;;;;;;;8.80;5.40;;;;;;;-0.55;72.34;101647.66;4996402;28;20034;-72
2022/03/07 07:07:49;;;;;;;14.43;6.20;;;;;;;-0.46;72.35;101644.69;4999279;28;20038;-72
2022/03/07 07:10:17;;;;;;;13.47;6.40;;;;;;;-0.33;71.97;101646.28;5001516;28;20034;-72
2022/03/07 07:12:42;;;;;;;13.77;6.93;;;;;;;-0.19;71.72;101652.22;5008954;28;20381;-72
2022/03/07 07:15:08;;;;;;;12.87;7.30;;;;;;;-0.05;71.08;101657.38;5001263;28;20095;-72
2022/03/07 07:17:34;;;;;;;11.47;7.20;;;;;;;0.08;71.00;101652.81;4999030;28;20038;-72
2022/03/07 07:20:01;;;;;;;13.23;7.27;;;;;;;0.13;70.47;101641.91;4999458;28;20127;-72
2022/03/07 07:22:27;;;;;;;12.90;6.57;;;;;;;0.18;70.41;101647.31;5000902;28;20454;-71
2022/03/07 07:24:52;;;;;;;10.90;6.87;;;;;;;0.18;70.57;101639.53;5013135;28;20035;-72
2022/03/07 07:27:18;;;;;;;12.43;7.07;;;;;;;0.24;70.35;101633.75;5000713;28;20082;-72
2022/03/07 07:29:43;;;;;;;10.97;6.30;;;;;;;0.31;69.94;101634.16;4999584;28;20496;-72
2022/03/07 07:32:08;;;;;;;13.23;6.40;;;;;;;0.33;70.49;101635.16;4998490;28;20389;-72
2022/03/07 07:34:34;;;;;;;12.33;6.73;;;;;;;0.34;69.49;101636.03;5004005;28;20042;-72
2022/03/07 07:36:59;;;;;;;11.80;5.83;;;;;;;0.36;69.17;101645.69;5025048;28;20041;-72
2022/03/07 07:39:24;;;;;;;10.63;5.60;;;;;;;0.42;68.91;101640.84;5018874;28;20086;-72
2022/03/07 07:41:50;;;;;;;10.20;5.75;;;;;;;0.50;68.80;101642.94;5006426;28;20040;-71
2022/03/07 07:44:16;;;;;;;9.60;5.90;;;;;;;0.59;67.85;101651.22;5024339;28;20034;-72
2022/03/07 07:46:42;;;;;;;9.43;5.38;;;;;;;0.66;68.06;101658.53;5030566;28;20491;-72
2022/03/07 07:49:07;;;;;;;9.43;5.60;;;;;;;0.75;68.13;101658.97;5025509;28;20070;-72
2022/03/07 07:51:33;;;;;;;7.63;4.68;;;;;;;0.79;67.95;101662.66;5000864;28;20444;-72
2022/03/07 07:54:00;;;;;;;7.85;4.63;;;;;;;0.86;67.40;101660.44;5002357;28;20491;-72
2022/03/07 07:56:25;;;;;;;12.07;7.50;;;;;;;0.96;68.25;101660.91;4997639;28;20116;-72
2022/03/07 07:58:50;;;;;;;11.30;6.68;;;;;;;1.11;67.13;101658.19;5000605;28;20038;-72
2022/03/07 08:01:16;;;;;;;8.02;4.47;;;;;;;1.21;66.21;101658.72;4998094;28;20061;-72
2022/03/07 08:03:41;;;;;;;10.65;4.63;;;;;;;1.34;65.08;101664.50;4998667;28;20042;-72
2022/03/07 08:06:06;;;;;;;9.48;4.63;;;;;;;1.44;64.17;101666.75;5000150;28;20073;-72
2022/03/07 08:08:32;;;;;;;9.73;4.53;;;;;;;1.52;63.53;101661.13;5000159;28;20042;-72
2022/03/07 08:10:57;;;;;;;9.05;4.53;;;;;;;1.71;63.15;101656.81;5034321;28;20035;-72
2022/03/07 08:13:22;;;;;;;8.80;4.93;;;;;;;1.85;62.98;101654.84;5012292;28;20400;-72
2022/03/07 08:15:48;;;;;;;9.93;5.07;;;;;;;2.06;62.16;101666.25;5037230;28;20038;-72
2022/03/07 08:18:13;;;;;;;9.90;4.40;;;;;;;2.21;62.46;101662.59;5005897;28;20038;-72
2022/03/07 08:20:39;;;;;;;12.05;4.72;;;;;;;2.36;61.43;101658.09;4996246;28;20049;-72
2022/03/07 08:23:05;;;;;;;10.32;5.60;;;;;;;2.36;61.53;101669.41;5022856;28;20504;-72
2022/03/07 08:25:32;;;;;;;9.68;5.07;;;;;;;2.36;61.58;101660.69;5023566;28;20041;-72
2022/03/07 08:27:58;;;;;;;10.50;6.05;;;;;;;2.39;61.04;101660.81;4997186;28;20040;-71
2022/03/07 08:30:25;;;;;;;8.82;5.07;;;;;;;2.59;61.17;101665.22;4997216;28;20042;-72
2022/03/07 08:32:51;;;;;;;9.85;5.10;;;;;;;2.67;61.07;101654.22;4999030;28;20038;-72
2022/03/07 08:35:16;;;;;;;10.07;5.20;;;;;;;2.62;61.55;101664.47;4998955;28;20087;-72
2022/03/07 08:37:45;;;;;;;9.80;5.25;;;;;;;2.60;61.48;101667.00;4997472;28;20022;-72
2022/03/07 08:40:12;;;;;;;9.40;5.22;;;;;;;2.59;60.98;101657.41;4997185;28;20038;-72
2022/03/07 08:42:37;;;;;;;8.18;5.53;;;;;;;2.68;61.77;101661.22;4996253;28;20042;-72
2022/03/07 08:45:07;;;;;;;9.15;5.65;;;;;;;2.80;60.56;101656.53;4998913;28;20050;-72
2022/03/07 08:47:34;;;;;;;9.48;5.13;;;;;;;2.92;60.90;101654.47;4996926;28;20034;-72
2022/03/07 08:50:00;;;;;;;13.07;5.38;;;;;;;3.02;61.73;101660.97;4999518;28;20067;-72
2022/03/07 08:52:25;;;;;;;9.85;4.93;;;;;;;3.18;62.40;101642.53;4998044;28;20121;-72
2022/03/07 08:54:51;;;;;;;10.93;5.10;;;;;;;3.38;61.47;101643.34;5016842;28;20041;-72
2022/03/07 08:57:17;;;;;;;9.07;4.75;;;;;;;3.42;59.99;101644.34;5021826;28;20033;-71
2022/03/07 08:59:42;;;;;;;9.95;4.80;;;;;;;3.39;60.46;101641.63;4996919;28;20034;-72
2022/03/07 09:02:09;;;;;;;10.27;6.28;;;;;;;3.37;60.81;101659.81;4997329;28;20038;-72
2022/03/07 09:04:35;;;;;;;10.43;5.68;;;;;;;3.44;61.68;101651.41;4998872;28;20046;-71
2022/03/07 09:07:01;;;;;;;9.93;5.70;;;;;;;3.48;61.69;101648.13;4996614;28;20048;-72
2022/03/07 09:09:27;;;;;;;11.55;5.93;;;;;;;3.54;61.91;101651.78;4996803;28;20034;-72
2022/03/07 09:11:53;;;;;;;9.50;5.78;;;;;;;3.47;62.91;101650.66;5011880;28;20510;-72
2022/03/07 09:14:19;;;;;;;8.68;6.05;;;;;;;3.58;62.78;101661.53;4994045;28;20137;-71
2022/03/07 09:16:44;;;;;;;12.43;6.68;;;;;;;3.67;62.27;101652.34;4998170;28;20053;-72
2022/03/07 09:19:09;;;;;;;11.65;5.90;;;;;;;3.79;62.09;101643.22;4999360;28;20030;-71
2022/03/07 09:21:35;;;;;;;8.45;6.32;;;;;;;3.85;62.08;101641.75;4998739;28;20125;-72
2022/03/07 09:24:00;;;;;;;8.50;5.43;;;;;;;4.16;61.05;101642.91;5001031;28;20069;-72
2022/03/07 09:26:26;;;;;;;10.60;5.65;;;;;;;4.24;59.59;101643.19;5012184;28;20035;-71
2022/03/07 09:28:51;;;;;;;9.50;5.57;;;;;;;4.34;59.74;101634.84;4998608;28;20046;-72
2022/03/07 09:31:17;;;;;;;10.05;6.30;;;;;;;4.54;58.80;101639.09;5015397;28;20065;-72
2022/03/07 09:33:42;;;;;;;10.38;5.10;;;;;;;4.62;59.11;101642.00;5015052;28;20037;-71
2022/03/07 09:36:08;;;;;;;10.35;5.22;;;;;;;4.76;58.73;101638.13;5045598;28;20496;-72
2022/03/07 09:38:36;;;;;;;10.18;5.57;;;;;;;4.87;59.52;101627.16;5019202;28;20121;-72
2022/03/07 09:41:01;;;;;;;11.43;5.18;;;;;;;4.90;59.22;101625.53;5021968;28;20051;-72
2022/03/07 09:43:27;;;;;;;10.82;5.65;;;;;;;4.89;59.05;101621.13;5033069;28;20048;-71
2022/03/07 09:45:52;;;;;;;10.40;5.20;;;;;;;4.78;59.00;101639.06;5000992;28;20045;-72
2022/03/07 09:48:21;;;;;;;14.00;6.47;;;;;;;4.54;59.35;101628.63;5014539;28;20034;-72
2022/03/07 09:50:47;;;;;;;9.68;4.90;;;;;;;4.49;59.92;101626.69;5002459;28;20048;-72
2022/03/07 09:53:13;;;;;;;9.60;5.25;;;;;;;4.48;59.93;101617.97;4997212;28;20038;-72
2022/03/07 09:55:39;;;;;;;9.63;5.57;;;;;;;4.54;59.79;101615.56;5029391;28;20045;-72
2022/03/07 09:58:06;;;;;;;8.60;4.93;;;;;;;4.59;59.15;101628.81;5020259;28;20409;-72
2022/03/07 10:00:31;;;;;;;9.45;5.07;;;;;;;4.66;59.65;101617.72;4999339;28;20050;-71
2022/03/07 10:02:59;;;;;;;11.02;5.00;;;;;;;4.72;58.66;101628.41;5001476;28;20034;-72
2022/03/07 10:05:26;;;;;;;7.05;4.53;;;;;;;4.82;58.63;101632.22;5015134;28;20112;-72
2022/03/07 10:07:51;;;;;;;10.63;5.25;;;;;;;4.73;58.14;101622.31;5003299;28;20079;-72
2022/03/07 10:10:17;;;;;;;10.93;5.43;;;;;;;4.80;59.22;101611.25;5028188;28;20076;-72
2022/03/07 10:12:47;;;;;;;10.25;5.25;;;;;;;5.22;58.16;101616.16;5008225;28;20557;-72
2022/03/07 10:15:17;;;;;;;8.80;5.38;;;;;;;5.30;57.76;101607.66;5053867;27;20049;-71
2022/03/07 10:17:52;;;;;;;7.28;5.05;;;;;;;5.58;57.29;101615.56;5012428;28;20046;-72
2022/03/07 10:20:19;;;;;;;11.38;5.13;;;;;;;5.80;57.13;101603.13;5000401;28;20163;-72
2022/03/07 10:22:47;;;;;;;9.00;5.45;;;;;;;6.02;56.22;101602.94;5044513;28;20034;-72
2022/03/07 10:25:13;;;;;;;6.60;4.22;;;;;;;5.96;56.37;101602.78;4996483;28;20127;-72
2022/03/07 10:27:41;;;;;;;7.00;4.55;;;;;;;5.79;55.74;101596.09;5000857;28;20057;-72
2022/03/07 10:30:15;;;;;;;6.80;3.58;;;;;;;6.02;55.33;101589.84;5001503;28;20105;-72
2022/03/07 10:33:00;;;;;;;10.52;4.88;;;;;;;6.13;54.98;101580.59;5005030;28;20424;-72
2022/03/07 10:35:33;;;;;;;9.18;4.95;;;;;;;5.88;55.13;101591.16;5018270;28;20038;-71
2022/03/07 10:38:05;;;;;;;8.77;4.60;;;;;;;5.76;55.76;101588.16;5004434;28;20049;-72
2022/03/07 10:40:32;;;;;;;8.13;4.72;;;;;;;5.77;56.79;101588.22;4999039;28;20086;-72
2022/03/07 10:43:00;;;;;;;7.47;4.53;;;;;;;5.86;56.83;101595.44;5000217;28;20067;-72
2022/03/07 10:45:29;;;;;;;10.20;4.35;;;;;;;5.94;56.86;101599.22;5000356;28;20033;-72
2022/03/07 10:48:00;;;;;;;9.23;4.55;;;;;;;5.85;56.79;101583.19;5005493;28;20037;-72
2022/03/07 10:50:28;;;;;;;8.63;4.90;;;;;;;5.59;56.43;101596.38;5000710;28;20042;-72
2022/03/07 10:52:59;;;;;;;13.63;7.53;;;;;;;5.72;57.16;101588.06;5023533;28;20481;-71
2022/03/07 10:55:27;;;;;;;8.98;4.43;;;;;;;5.82;56.48;101594.47;4997680;28;20030;-72
2022/03/07 10:57:53;;;;;;;9.57;5.32;;;;;;;5.85;56.05;101596.31;5000140;28;20048;-72
2022/03/07 11:00:20;;;;;;;7.65;4.80;;;;;;;5.81;55.27;101579.59;5000831;28;20198;-72
2022/03/07 11:02:47;;;;;;;7.70;4.70;;;;;;;5.78;55.65;101582.13;4999791;28;20034;-72
2022/03/07 11:05:14;;;;;;;8.88;4.63;;;;;;;5.83;56.38;101574.41;5005765;28;20038;-72
2022/03/07 11:07:43;;;;;;;9.45;4.25;;;;;;;5.92;55.74;101569.41;5000071;28;20455;-72
2022/03/07 11:10:11;;;;;;;9.10;4.20;;;;;;;6.13;56.61;101572.72;4998536;28;20074;-72
2022/03/07 11:12:37;;;;;;;7.20;3.80;;;;;;;6.23;55.30;101562.47;4998329;28;20412;-72
2022/03/07 11:15:10;;;;;;;7.20;3.78;;;;;;;6.31;54.64;101576.69;5000090;28;20040;-71
2022/03/07 11:17:41;;;;;;;7.93;5.32;;;;;;;6.30;54.21;101561.81;5006795;28;20091;-72
2022/03/07 11:20:09;;;;;;;6.32;2.90;;;;;;;6.44;52.34;101565.69;5044045;28;20032;-71
2022/03/07 11:22:35;;;;;;;4.72;2.63;;;;;;;6.41;50.66;101570.84;4998546;28;20045;-72
2022/03/07 11:25:02;;;;;;;5.38;2.80;;;;;;;6.34;50.64;101558.41;4998841;28;20121;-72